This is the latest recevied weather packets stored in our database for station/object WK7G. If no packets are shown the sender has not sent any weather packets the latest 10 day(s).
| Time | Temp. | Humidity | Pressure | Rain* | Wind** | Luminosity | Snow |
|---|---|---|---|---|---|---|---|
| 1777700731 | 3.33° C | 59% | 1015.3 hPa | 0 mm | - | 0 W/m² | - |
| 1777700427 | 2.78° C | 60% | 1015.3 hPa | 0 mm | - | 0 W/m² | - |
| 1777700124 | 1.67° C | 65% | 1015.1 hPa | 0 mm | - | 0 W/m² | - |
| 1777699822 | 1.67° C | 69% | 1015.2 hPa | 0 mm | - | 0 W/m² | - |
| 1777699520 | 2.22° C | 68% | 1015.1 hPa | 0 mm | - | 0 W/m² | - |
| 1777699218 | 2.78° C | 64% | 1015.3 hPa | 0 mm | - | 0 W/m² | - |
| 1777698916 | 3.33° C | 67% | 1014.8 hPa | 0 mm | - | 0 W/m² | - |
| 1777698613 | 5° C | 54% | 1014.9 hPa | 0 mm | - | 0 W/m² | - |
| 1777698309 | 5.56° C | 53% | 1014.7 hPa | 0 mm | - | 0 W/m² | - |
| 1777698007 | 5.56° C | 54% | 1014.9 hPa | 0 mm | - | 0 W/m² | - |
| 1777697703 | 5.56° C | 52% | 1014.7 hPa | 0 mm | - | 0 W/m² | - |
| 1777697401 | 5.56° C | 52% | 1015.2 hPa | 0 mm | - | 0 W/m² | - |
| 1777697096 | 5° C | 53% | 1014.7 hPa | 0 mm | - | 0 W/m² | - |
| 1777696793 | 4.44° C | 58% | 1014.9 hPa | 0 mm | - | 0 W/m² | - |
| 1777696491 | 5° C | 55% | 1014.9 hPa | 0 mm | - | 0 W/m² | - |
| 1777696190 | 5.56° C | 53% | 1015.1 hPa | 0 mm | - | 0 W/m² | - |
| 1777695887 | 5° C | 55% | 1015.1 hPa | 0 mm | - | 0 W/m² | - |
| 1777695585 | 4.44° C | 57% | 1015.2 hPa | 0 mm | - | 0 W/m² | - |
| 1777695283 | 5.56° C | 55% | 1014.8 hPa | 0 mm | - | 0 W/m² | - |
| 1777694979 | 6.11° C | 51% | 1014.9 hPa | 0 mm | - | 0 W/m² | - |
| 1777694676 | 6.11° C | 51% | 1014.9 hPa | 0 mm | - | 0 W/m² | - |
| 1777694372 | 6.11° C | 52% | 1014.9 hPa | 0 mm | - | 0 W/m² | - |
| 1777694068 | 6.11° C | 51% | 1014.8 hPa | 0 mm | - | 0 W/m² | - |
| 1777693766 | 6.67° C | 49% | 1014.8 hPa | 0 mm | - | 0 W/m² | - |
| 1777693465 | 6.67° C | 48% | 1014.8 hPa | 0 mm | - | 0 W/m² | - |
* Rain latest hour (hover to see other rain measurements)
** Current wind speed in m/s (hover to see current wind gust speed)